sensor_id;sensor_type;location;lat;lon;timestamp;pressure;altitude;pressure_sealevel;temperature;humidity
9009;BME280;62813;51.424;6.762;2023-07-22T00:02:25;101110.19;;;17.28;55.76
9009;BME280;62813;51.424;6.762;2023-07-22T00:04:51;101099.47;;;17.33;55.68
9009;BME280;62813;51.424;6.762;2023-07-22T00:07:18;101114.25;;;17.12;56.43
9009;BME280;62813;51.424;6.762;2023-07-22T00:09:45;101102.03;;;17.25;56.23
9009;BME280;62813;51.424;6.762;2023-07-22T00:12:12;101111.50;;;17.17;56.53
9009;BME280;62813;51.424;6.762;2023-07-22T00:14:40;101109.31;;;17.19;56.60
9009;BME280;62813;51.424;6.762;2023-07-22T00:17:07;101100.31;;;17.01;57.04
9009;BME280;62813;51.424;6.762;2023-07-22T00:19:34;101099.25;;;17.02;56.97
9009;BME280;62813;51.424;6.762;2023-07-22T00:22:01;101098.97;;;17.04;56.93
9009;BME280;62813;51.424;6.762;2023-07-22T00:24:28;101095.31;;;17.14;56.33
9009;BME280;62813;51.424;6.762;2023-07-22T00:26:55;101081.03;;;17.10;56.75
9009;BME280;62813;51.424;6.762;2023-07-22T00:29:22;101078.38;;;17.10;56.70
9009;BME280;62813;51.424;6.762;2023-07-22T00:31:49;101087.03;;;17.15;56.81
9009;BME280;62813;51.424;6.762;2023-07-22T00:34:15;101091.56;;;17.15;56.32
9009;BME280;62813;51.424;6.762;2023-07-22T00:36:43;101091.34;;;17.11;56.80
9009;BME280;62813;51.424;6.762;2023-07-22T00:39:10;101093.94;;;17.16;56.54
9009;BME280;62813;51.424;6.762;2023-07-22T00:41:40;101085.16;;;17.16;56.39
9009;BME280;62813;51.424;6.762;2023-07-22T00:44:11;101090.47;;;17.02;56.74
9009;BME280;62813;51.424;6.762;2023-07-22T00:46:39;101085.03;;;16.93;57.10
9009;BME280;62813;51.424;6.762;2023-07-22T00:49:07;101082.19;;;17.03;56.29
9009;BME280;62813;51.424;6.762;2023-07-22T00:51:34;101081.50;;;17.12;56.42
9009;BME280;62813;51.424;6.762;2023-07-22T00:54:00;101082.91;;;17.09;56.47
9009;BME280;62813;51.424;6.762;2023-07-22T00:56:27;101081.19;;;17.13;56.01
9009;BME280;62813;51.424;6.762;2023-07-22T00:58:55;101079.53;;;17.03;56.48
9009;BME280;62813;51.424;6.762;2023-07-22T01:01:22;101076.00;;;17.08;56.60
9009;BME280;62813;51.424;6.762;2023-07-22T01:03:48;101074.22;;;17.17;56.13
9009;BME280;62813;51.424;6.762;2023-07-22T01:06:15;101066.50;;;17.02;56.77
9009;BME280;62813;51.424;6.762;2023-07-22T01:08:44;101072.31;;;17.04;56.63
9009;BME280;62813;51.424;6.762;2023-07-22T01:11:11;101070.25;;;17.15;56.32
9009;BME280;62813;51.424;6.762;2023-07-22T01:13:39;101075.75;;;17.18;56.36
9009;BME280;62813;51.424;6.762;2023-07-22T01:16:06;101066.13;;;17.09;56.65
9009;BME280;62813;51.424;6.762;2023-07-22T01:18:33;101065.34;;;17.08;57.07
9009;BME280;62813;51.424;6.762;2023-07-22T01:21:00;101074.00;;;17.00;56.75
9009;BME280;62813;51.424;6.762;2023-07-22T01:23:27;101065.22;;;17.13;56.96
9009;BME280;62813;51.424;6.762;2023-07-22T01:25:55;101067.69;;;16.96;57.47
9009;BME280;62813;51.424;6.762;2023-07-22T01:28:22;101062.09;;;16.84;58.56
9009;BME280;62813;51.424;6.762;2023-07-22T01:30:49;101063.34;;;16.86;58.26
9009;BME280;62813;51.424;6.762;2023-07-22T01:33:15;101064.84;;;16.92;58.22
9009;BME280;62813;51.424;6.762;2023-07-22T01:35:42;101059.50;;;17.06;57.26
9009;BME280;62813;51.424;6.762;2023-07-22T01:38:09;101076.06;;;16.89;58.45
9009;BME280;62813;51.424;6.762;2023-07-22T01:40:35;101056.94;;;16.87;57.93
9009;BME280;62813;51.424;6.762;2023-07-22T01:43:02;101070.34;;;16.96;58.19
9009;BME280;62813;51.424;6.762;2023-07-22T01:45:29;101059.88;;;16.86;58.87
9009;BME280;62813;51.424;6.762;2023-07-22T01:47:55;101056.34;;;17.04;57.58
9009;BME280;62813;51.424;6.762;2023-07-22T01:50:22;101059.31;;;16.89;58.42
9009;BME280;62813;51.424;6.762;2023-07-22T01:52:49;101055.19;;;16.83;58.72
9009;BME280;62813;51.424;6.762;2023-07-22T01:55:16;101058.31;;;16.85;58.65
9009;BME280;62813;51.424;6.762;2023-07-22T01:57:43;101047.06;;;17.01;57.95
9009;BME280;62813;51.424;6.762;2023-07-22T02:00:10;101050.72;;;17.06;58.18
9009;BME280;62813;51.424;6.762;2023-07-22T02:02:42;101055.28;;;17.05;57.81
9009;BME280;62813;51.424;6.762;2023-07-22T02:05:09;101049.44;;;17.03;58.32
9009;BME280;62813;51.424;6.762;2023-07-22T02:07:37;101056.06;;;17.06;57.79
9009;BME280;62813;51.424;6.762;2023-07-22T02:10:04;101053.09;;;16.93;58.23
9009;BME280;62813;51.424;6.762;2023-07-22T02:12:31;101055.66;;;16.85;58.18
9009;BME280;62813;51.424;6.762;2023-07-22T02:14:58;101059.41;;;16.84;58.25
9009;BME280;62813;51.424;6.762;2023-07-22T02:17:25;101056.75;;;16.97;58.00
9009;BME280;62813;51.424;6.762;2023-07-22T02:19:52;101048.16;;;16.87;57.48
9009;BME280;62813;51.424;6.762;2023-07-22T02:22:19;101061.41;;;16.92;57.54
9009;BME280;62813;51.424;6.762;2023-07-22T02:24:45;101053.97;;;17.02;57.30
9009;BME280;62813;51.424;6.762;2023-07-22T02:27:12;101047.88;;;17.02;57.33
9009;BME280;62813;51.424;6.762;2023-07-22T02:29:39;101046.88;;;17.12;57.52
9009;BME280;62813;51.424;6.762;2023-07-22T02:32:06;101046.91;;;16.98;57.26
9009;BME280;62813;51.424;6.762;2023-07-22T02:34:33;101039.88;;;17.02;57.22
9009;BME280;62813;51.424;6.762;2023-07-22T02:36:59;101041.84;;;16.96;57.33
9009;BME280;62813;51.424;6.762;2023-07-22T02:39:26;101047.38;;;16.86;57.48
9009;BME280;62813;51.424;6.762;2023-07-22T02:41:52;101046.50;;;17.05;57.25
9009;BME280;62813;51.424;6.762;2023-07-22T02:44:19;101049.97;;;16.91;57.96
9009;BME280;62813;51.424;6.762;2023-07-22T02:46:46;101050.44;;;16.80;57.52
9009;BME280;62813;51.424;6.762;2023-07-22T02:49:12;101056.34;;;16.77;57.96
9009;BME280;62813;51.424;6.762;2023-07-22T02:51:39;101056.88;;;16.92;57.51
9009;BME280;62813;51.424;6.762;2023-07-22T02:54:05;101065.09;;;16.77;57.51
9009;BME280;62813;51.424;6.762;2023-07-22T02:56:33;101059.22;;;16.80;57.58
9009;BME280;62813;51.424;6.762;2023-07-22T02:58:59;101061.75;;;16.72;57.54
9009;BME280;62813;51.424;6.762;2023-07-22T03:01:26;101063.53;;;16.62;58.01
9009;BME280;62813;51.424;6.762;2023-07-22T03:03:53;101062.75;;;16.76;57.38
9009;BME280;62813;51.424;6.762;2023-07-22T03:06:20;101057.03;;;16.96;56.98
9009;BME280;62813;51.424;6.762;2023-07-22T03:08:47;101052.31;;;16.93;56.88
9009;BME280;62813;51.424;6.762;2023-07-22T03:11:15;101058.53;;;16.88;57.17
9009;BME280;62813;51.424;6.762;2023-07-22T03:13:42;101061.66;;;16.77;56.46
9009;BME280;62813;51.424;6.762;2023-07-22T03:16:08;101072.91;;;16.74;56.78
9009;BME280;62813;51.424;6.762;2023-07-22T03:18:35;101075.19;;;16.80;56.41
9009;BME280;62813;51.424;6.762;2023-07-22T03:21:02;101065.09;;;16.77;56.29
9009;BME280;62813;51.424;6.762;2023-07-22T03:23:29;101062.94;;;16.79;56.25
9009;BME280;62813;51.424;6.762;2023-07-22T03:25:55;101067.28;;;16.75;56.22
9009;BME280;62813;51.424;6.762;2023-07-22T03:28:23;101066.50;;;16.75;56.61
9009;BME280;62813;51.424;6.762;2023-07-22T03:30:50;101068.84;;;16.62;56.17
9009;BME280;62813;51.424;6.762;2023-07-22T03:33:16;101075.50;;;16.60;56.46
9009;BME280;62813;51.424;6.762;2023-07-22T03:35:43;101066.41;;;16.66;55.60
9009;BME280;62813;51.424;6.762;2023-07-22T03:38:10;101060.41;;;16.74;55.52
9009;BME280;62813;51.424;6.762;2023-07-22T03:40:36;101065.06;;;16.50;56.07
9009;BME280;62813;51.424;6.762;2023-07-22T03:43:04;101066.78;;;16.73;55.65
9009;BME280;62813;51.424;6.762;2023-07-22T03:45:30;101067.59;;;16.74;55.78
9009;BME280;62813;51.424;6.762;2023-07-22T03:47:59;101074.56;;;16.70;55.87
9009;BME280;62813;51.424;6.762;2023-07-22T03:50:27;101074.94;;;16.63;55.98
9009;BME280;62813;51.424;6.762;2023-07-22T03:52:53;101065.78;;;16.69;56.41
9009;BME280;62813;51.424;6.762;2023-07-22T03:55:20;101067.75;;;16.63;56.41
9009;BME280;62813;51.424;6.762;2023-07-22T03:57:47;101072.38;;;16.58;56.75
9009;BME280;62813;51.424;6.762;2023-07-22T04:00:14;101073.09;;;16.63;56.66
9009;BME280;62813;51.424;6.762;2023-07-22T04:02:41;101072.50;;;16.67;56.89
9009;BME280;62813;51.424;6.762;2023-07-22T04:05:09;101071.41;;;16.68;56.86
9009;BME280;62813;51.424;6.762;2023-07-22T04:07:36;101059.50;;;16.79;56.91
9009;BME280;62813;51.424;6.762;2023-07-22T04:10:03;101066.50;;;16.75;56.56
9009;BME280;62813;51.424;6.762;2023-07-22T04:12:30;101058.88;;;16.68;56.80
9009;BME280;62813;51.424;6.762;2023-07-22T04:14:56;101064.41;;;16.72;56.81
9009;BME280;62813;51.424;6.762;2023-07-22T04:17:23;101070.66;;;16.81;55.96
9009;BME280;62813;51.424;6.762;2023-07-22T04:19:53;101074.50;;;16.75;56.09
9009;BME280;62813;51.424;6.762;2023-07-22T04:22:20;101077.72;;;16.85;56.04
9009;BME280;62813;51.424;6.762;2023-07-22T04:24:47;101071.34;;;16.86;56.34
9009;BME280;62813;51.424;6.762;2023-07-22T04:27:18;101067.41;;;16.84;55.62
9009;BME280;62813;51.424;6.762;2023-07-22T04:29:44;101073.47;;;16.71;56.76
9009;BME280;62813;51.424;6.762;2023-07-22T04:32:11;101080.38;;;16.72;56.47
9009;BME280;62813;51.424;6.762;2023-07-22T04:34:38;101083.63;;;16.69;56.32
9009;BME280;62813;51.424;6.762;2023-07-22T04:37:05;101082.16;;;16.62;56.21
9009;BME280;62813;51.424;6.762;2023-07-22T04:39:32;101078.41;;;16.63;55.74
9009;BME280;62813;51.424;6.762;2023-07-22T04:41:58;101088.53;;;16.61;55.31
9009;BME280;62813;51.424;6.762;2023-07-22T04:44:25;101082.50;;;16.56;55.44
9009;BME280;62813;51.424;6.762;2023-07-22T04:46:52;101082.84;;;16.68;55.21
9009;BME280;62813;51.424;6.762;2023-07-22T04:49:18;101080.91;;;16.74;55.22
9009;BME280;62813;51.424;6.762;2023-07-22T04:51:45;101079.50;;;16.76;55.53
9009;BME280;62813;51.424;6.762;2023-07-22T04:54:13;101079.91;;;16.83;54.95
9009;BME280;62813;51.424;6.762;2023-07-22T04:56:41;101082.75;;;16.73;55.08
9009;BME280;62813;51.424;6.762;2023-07-22T04:59:08;101079.88;;;16.70;55.02
9009;BME280;62813;51.424;6.762;2023-07-22T05:01:35;101078.13;;;16.79;55.05
9009;BME280;62813;51.424;6.762;2023-07-22T05:04:02;101080.00;;;16.78;54.85
9009;BME280;62813;51.424;6.762;2023-07-22T05:06:28;101072.59;;;16.61;55.53
9009;BME280;62813;51.424;6.762;2023-07-22T05:08:55;101077.31;;;16.64;55.41
9009;BME280;62813;51.424;6.762;2023-07-22T05:11:22;101069.28;;;16.51;55.67
9009;BME280;62813;51.424;6.762;2023-07-22T05:13:49;101072.28;;;16.63;55.36
9009;BME280;62813;51.424;6.762;2023-07-22T05:16:17;101074.59;;;16.51;55.63
9009;BME280;62813;51.424;6.762;2023-07-22T05:18:44;101078.16;;;16.60;55.36
9009;BME280;62813;51.424;6.762;2023-07-22T05:21:10;101086.50;;;16.40;56.17
9009;BME280;62813;51.424;6.762;2023-07-22T05:23:38;101078.00;;;16.38;56.24
9009;BME280;62813;51.424;6.762;2023-07-22T05:26:05;101085.50;;;16.36;55.77
9009;BME280;62813;51.424;6.762;2023-07-22T05:28:31;101085.31;;;16.46;55.96
9009;BME280;62813;51.424;6.762;2023-07-22T05:30:58;101080.69;;;16.38;55.82
9009;BME280;62813;51.424;6.762;2023-07-22T05:33:25;101085.03;;;16.47;55.97
9009;BME280;62813;51.424;6.762;2023-07-22T05:35:54;101089.88;;;16.59;55.36
9009;BME280;62813;51.424;6.762;2023-07-22T05:38:21;101087.31;;;16.54;55.59
9009;BME280;62813;51.424;6.762;2023-07-22T05:40:48;101090.66;;;16.46;55.58
9009;BME280;62813;51.424;6.762;2023-07-22T05:43:15;101085.59;;;16.77;55.46
9009;BME280;62813;51.424;6.762;2023-07-22T05:45:41;101087.75;;;16.61;55.47
9009;BME280;62813;51.424;6.762;2023-07-22T05:48:08;101092.56;;;16.91;55.36
9009;BME280;62813;51.424;6.762;2023-07-22T05:50:34;101100.22;;;16.93;54.78
9009;BME280;62813;51.424;6.762;2023-07-22T05:53:01;101095.78;;;16.75;55.46
9009;BME280;62813;51.424;6.762;2023-07-22T05:55:28;101093.63;;;17.04;54.79
9009;BME280;62813;51.424;6.762;2023-07-22T05:57:54;101088.41;;;17.13;54.65
9009;BME280;62813;51.424;6.762;2023-07-22T06:00:21;101092.25;;;17.34;54.72
9009;BME280;62813;51.424;6.762;2023-07-22T06:02:48;101098.38;;;17.21;54.87
9009;BME280;62813;51.424;6.762;2023-07-22T06:05:15;101096.78;;;17.33;54.59
9009;BME280;62813;51.424;6.762;2023-07-22T06:07:42;101090.19;;;17.31;54.66
9009;BME280;62813;51.424;6.762;2023-07-22T06:10:09;101095.59;;;17.39;54.96
9009;BME280;62813;51.424;6.762;2023-07-22T06:12:36;101096.47;;;17.49;54.35
9009;BME280;62813;51.424;6.762;2023-07-22T06:15:03;101084.25;;;17.48;53.88
9009;BME280;62813;51.424;6.762;2023-07-22T06:17:30;101087.09;;;17.65;54.13
9009;BME280;62813;51.424;6.762;2023-07-22T06:19:57;101085.81;;;17.49;54.78
9009;BME280;62813;51.424;6.762;2023-07-22T06:22:23;101086.44;;;17.32;54.79
9009;BME280;62813;51.424;6.762;2023-07-22T06:24:50;101087.41;;;17.50;54.40
9009;BME280;62813;51.424;6.762;2023-07-22T06:27:17;101087.97;;;17.60;54.33
9009;BME280;62813;51.424;6.762;2023-07-22T06:29:44;101091.94;;;17.49;54.31
9009;BME280;62813;51.424;6.762;2023-07-22T06:32:11;101086.50;;;17.54;54.19
9009;BME280;62813;51.424;6.762;2023-07-22T06:34:38;101083.53;;;17.69;54.14
9009;BME280;62813;51.424;6.762;2023-07-22T06:37:05;101087.41;;;17.50;54.34
9009;BME280;62813;51.424;6.762;2023-07-22T06:39:31;101089.47;;;17.66;53.80
9009;BME280;62813;51.424;6.762;2023-07-22T06:41:58;101087.97;;;17.74;54.22
9009;BME280;62813;51.424;6.762;2023-07-22T06:44:25;101083.50;;;17.83;53.69
9009;BME280;62813;51.424;6.762;2023-07-22T06:46:51;101080.63;;;17.93;53.98
9009;BME280;62813;51.424;6.762;2023-07-22T06:49:18;101086.81;;;18.02;54.21
9009;BME280;62813;51.424;6.762;2023-07-22T06:51:44;101085.81;;;17.98;54.19
9009;BME280;62813;51.424;6.762;2023-07-22T06:54:11;101081.69;;;18.14;53.73
9009;BME280;62813;51.424;6.762;2023-07-22T06:56:38;101079.66;;;18.11;54.18
9009;BME280;62813;51.424;6.762;2023-07-22T06:59:05;101073.34;;;18.07;53.83
9009;BME280;62813;51.424;6.762;2023-07-22T07:01:31;101076.47;;;17.87;54.32
9009;BME280;62813;51.424;6.762;2023-07-22T07:03:58;101077.44;;;17.69;54.51
9009;BME280;62813;51.424;6.762;2023-07-22T07:06:25;101086.41;;;17.59;54.99
9009;BME280;62813;51.424;6.762;2023-07-22T07:08:51;101076.31;;;17.56;55.05
9009;BME280;62813;51.424;6.762;2023-07-22T07:11:18;101077.22;;;17.65;54.82
9009;BME280;62813;51.424;6.762;2023-07-22T07:13:45;101075.94;;;17.76;54.81
9009;BME280;62813;51.424;6.762;2023-07-22T07:16:25;101077.44;;;17.91;55.06
9009;BME280;62813;51.424;6.762;2023-07-22T07:18:53;101087.69;;;17.98;55.08
9009;BME280;62813;51.424;6.762;2023-07-22T07:21:21;101086.50;;;18.26;54.28
9009;BME280;62813;51.424;6.762;2023-07-22T07:23:48;101080.06;;;18.27;53.95
9009;BME280;62813;51.424;6.762;2023-07-22T07:26:15;101080.25;;;18.08;54.57
9009;BME280;62813;51.424;6.762;2023-07-22T07:28:45;101079.19;;;17.96;55.19
9009;BME280;62813;51.424;6.762;2023-07-22T07:31:12;101086.53;;;18.12;54.45
9009;BME280;62813;51.424;6.762;2023-07-22T07:33:39;101080.63;;;18.15;54.60
9009;BME280;62813;51.424;6.762;2023-07-22T07:36:06;101090.63;;;18.32;54.81
9009;BME280;62813;51.424;6.762;2023-07-22T07:38:33;101092.09;;;18.47;54.07
9009;BME280;62813;51.424;6.762;2023-07-22T07:41:02;101095.16;;;18.32;54.24
9009;BME280;62813;51.424;6.762;2023-07-22T07:43:29;101089.50;;;18.56;54.12
9009;BME280;62813;51.424;6.762;2023-07-22T07:46:32;101076.84;;;18.61;53.85
9009;BME280;62813;51.424;6.762;2023-07-22T07:49:00;101089.53;;;18.33;54.81
9009;BME280;62813;51.424;6.762;2023-07-22T07:51:29;101091.94;;;18.43;54.51
9009;BME280;62813;51.424;6.762;2023-07-22T07:53:57;101091.50;;;18.72;53.74
9009;BME280;62813;51.424;6.762;2023-07-22T07:56:25;101083.72;;;18.84;53.84
9009;BME280;62813;51.424;6.762;2023-07-22T07:58:53;101088.06;;;18.80;53.65
9009;BME280;62813;51.424;6.762;2023-07-22T08:01:20;101087.97;;;18.85;53.39
9009;BME280;62813;51.424;6.762;2023-07-22T08:03:48;101094.66;;;18.74;53.33
9009;BME280;62813;51.424;6.762;2023-07-22T08:06:15;101096.53;;;18.74;54.06
9009;BME280;62813;51.424;6.762;2023-07-22T08:08:45;101089.66;;;18.81;53.43
9009;BME280;62813;51.424;6.762;2023-07-22T08:11:14;101095.81;;;18.90;53.08
9009;BME280;62813;51.424;6.762;2023-07-22T08:13:43;101086.78;;;19.09;52.36
9009;BME280;62813;51.424;6.762;2023-07-22T08:16:11;101092.47;;;19.16;51.77
9009;BME280;62813;51.424;6.762;2023-07-22T08:18:39;101092.00;;;19.14;52.77
9009;BME280;62813;51.424;6.762;2023-07-22T08:21:06;101090.09;;;19.14;51.63
9009;BME280;62813;51.424;6.762;2023-07-22T08:23:35;101093.44;;;19.28;51.56
9009;BME280;62813;51.424;6.762;2023-07-22T08:26:03;101080.72;;;19.34;51.27
9009;BME280;62813;51.424;6.762;2023-07-22T08:28:33;101082.06;;;19.54;51.69
9009;BME280;62813;51.424;6.762;2023-07-22T08:30:59;101090.69;;;19.59;51.33
9009;BME280;62813;51.424;6.762;2023-07-22T08:33:28;101089.41;;;19.48;50.93
9009;BME280;62813;51.424;6.762;2023-07-22T08:36:07;101081.69;;;19.47;50.25
9009;BME280;62813;51.424;6.762;2023-07-22T08:38:34;101082.38;;;19.70;50.80
9009;BME280;62813;51.424;6.762;2023-07-22T08:41:01;101086.31;;;19.81;50.71
9009;BME280;62813;51.424;6.762;2023-07-22T08:43:28;101084.09;;;19.83;50.16
9009;BME280;62813;51.424;6.762;2023-07-22T08:45:59;101084.09;;;20.00;50.02
9009;BME280;62813;51.424;6.762;2023-07-22T08:48:29;101096.06;;;20.02;48.74
9009;BME280;62813;51.424;6.762;2023-07-22T08:51:23;101078.44;;;19.93;49.04
9009;BME280;62813;51.424;6.762;2023-07-22T08:53:51;101082.88;;;20.06;48.93
9009;BME280;62813;51.424;6.762;2023-07-22T08:56:36;101075.75;;;20.10;48.61
9009;BME280;62813;51.424;6.762;2023-07-22T08:59:04;101083.00;;;20.10;48.40
9009;BME280;62813;51.424;6.762;2023-07-22T09:01:33;101082.53;;;20.08;48.83
9009;BME280;62813;51.424;6.762;2023-07-22T09:04:01;101080.19;;;20.15;48.75
9009;BME280;62813;51.424;6.762;2023-07-22T09:06:28;101073.38;;;20.17;48.51
9009;BME280;62813;51.424;6.762;2023-07-22T09:08:56;101079.84;;;20.16;49.38
9009;BME280;62813;51.424;6.762;2023-07-22T09:11:24;101080.00;;;20.20;49.38
9009;BME280;62813;51.424;6.762;2023-07-22T09:13:51;101080.81;;;20.12;48.45
9009;BME280;62813;51.424;6.762;2023-07-22T09:16:20;101080.81;;;20.03;48.84
9009;BME280;62813;51.424;6.762;2023-07-22T09:18:47;101088.97;;;20.24;48.56
9009;BME280;62813;51.424;6.762;2023-07-22T09:21:13;101075.13;;;20.30;48.00
9009;BME280;62813;51.424;6.762;2023-07-22T09:23:40;101077.31;;;20.37;47.85
9009;BME280;62813;51.424;6.762;2023-07-22T09:26:12;101081.72;;;20.42;48.35
9009;BME280;62813;51.424;6.762;2023-07-22T09:28:55;101087.25;;;20.36;47.04
9009;BME280;62813;51.424;6.762;2023-07-22T09:31:25;101090.53;;;20.33;47.93
9009;BME280;62813;51.424;6.762;2023-07-22T09:33:52;101080.94;;;20.50;47.64
9009;BME280;62813;51.424;6.762;2023-07-22T09:36:21;101072.13;;;20.49;47.46
9009;BME280;62813;51.424;6.762;2023-07-22T09:39:03;101084.88;;;20.35;47.09
9009;BME280;62813;51.424;6.762;2023-07-22T09:41:30;101074.31;;;20.47;47.67
9009;BME280;62813;51.424;6.762;2023-07-22T09:44:02;101074.59;;;20.54;47.25
9009;BME280;62813;51.424;6.762;2023-07-22T09:46:32;101072.25;;;20.53;47.79
9009;BME280;62813;51.424;6.762;2023-07-22T09:49:04;101073.84;;;20.45;47.56
9009;BME280;62813;51.424;6.762;2023-07-22T09:51:33;101078.34;;;20.62;47.99
9009;BME280;62813;51.424;6.762;2023-07-22T09:54:06;101066.47;;;20.80;47.02
9009;BME280;62813;51.424;6.762;2023-07-22T09:56:44;101067.56;;;20.88;46.80
9009;BME280;62813;51.424;6.762;2023-07-22T09:59:11;101063.38;;;20.69;46.84
9009;BME280;62813;51.424;6.762;2023-07-22T10:01:39;101058.78;;;20.70;47.21
9009;BME280;62813;51.424;6.762;2023-07-22T10:04:07;101063.63;;;20.85;47.39
9009;BME280;62813;51.424;6.762;2023-07-22T10:06:35;101062.13;;;20.67;46.79
9009;BME280;62813;51.424;6.762;2023-07-22T10:09:03;101064.81;;;20.67;47.11
9009;BME280;62813;51.424;6.762;2023-07-22T10:11:35;101063.34;;;20.78;46.54
9009;BME280;62813;51.424;6.762;2023-07-22T10:14:02;101069.41;;;20.96;47.27
9009;BME280;62813;51.424;6.762;2023-07-22T10:16:29;101055.16;;;21.04;46.40
9009;BME280;62813;51.424;6.762;2023-07-22T10:18:58;101073.88;;;21.12;46.92
9009;BME280;62813;51.424;6.762;2023-07-22T10:21:25;101061.28;;;21.13;46.92
9009;BME280;62813;51.424;6.762;2023-07-22T10:23:55;101057.50;;;21.14;44.96
9009;BME280;62813;51.424;6.762;2023-07-22T10:26:22;101050.75;;;21.08;46.03
9009;BME280;62813;51.424;6.762;2023-07-22T10:29:08;101059.44;;;21.05;46.88
9009;BME280;62813;51.424;6.762;2023-07-22T10:31:35;101055.50;;;21.02;45.58
9009;BME280;62813;51.424;6.762;2023-07-22T10:34:03;101045.91;;;20.93;44.41
9009;BME280;62813;51.424;6.762;2023-07-22T10:36:30;101048.59;;;20.93;44.99
9009;BME280;62813;51.424;6.762;2023-07-22T10:38:58;101052.38;;;21.00;45.23
9009;BME280;62813;51.424;6.762;2023-07-22T10:41:29;101049.66;;;21.09;43.50
9009;BME280;62813;51.424;6.762;2023-07-22T10:43:57;101032.59;;;21.13;43.54
9009;BME280;62813;51.424;6.762;2023-07-22T10:46:35;101037.72;;;21.27;44.71
9009;BME280;62813;51.424;6.762;2023-07-22T10:49:13;101031.88;;;21.34;44.03
9009;BME280;62813;51.424;6.762;2023-07-22T10:51:40;101028.34;;;21.42;43.45
9009;BME280;62813;51.424;6.762;2023-07-22T10:54:11;101028.59;;;21.49;43.74
9009;BME280;62813;51.424;6.762;2023-07-22T10:56:43;101031.75;;;21.51;43.70
9009;BME280;62813;51.424;6.762;2023-07-22T10:59:11;101030.22;;;21.62;44.17
9009;BME280;62813;51.424;6.762;2023-07-22T11:01:43;101017.00;;;21.57;42.96
9009;BME280;62813;51.424;6.762;2023-07-22T11:12:01;101018.69;;;21.82;42.85
9009;BME280;62813;51.424;6.762;2023-07-22T11:14:33;101017.16;;;21.94;42.53
9009;BME280;62813;51.424;6.762;2023-07-22T11:17:02;101015.38;;;22.18;41.38
9009;BME280;62813;51.424;6.762;2023-07-22T11:19:32;101015.69;;;22.29;41.76
9009;BME280;62813;51.424;6.762;2023-07-22T11:22:02;101016.16;;;22.31;41.66
9009;BME280;62813;51.424;6.762;2023-07-22T11:24:29;101006.97;;;22.20;41.85
9009;BME280;62813;51.424;6.762;2023-07-22T11:26:56;101017.91;;;22.15;41.69
9009;BME280;62813;51.424;6.762;2023-07-22T11:29:22;101015.78;;;22.20;41.86
9009;BME280;62813;51.424;6.762;2023-07-22T11:31:50;101001.94;;;22.31;41.26
9009;BME280;62813;51.424;6.762;2023-07-22T11:34:20;101008.00;;;22.27;41.34
9009;BME280;62813;51.424;6.762;2023-07-22T11:36:48;101004.84;;;22.25;42.37
9009;BME280;62813;51.424;6.762;2023-07-22T11:39:17;100998.16;;;22.19;42.45
9009;BME280;62813;51.424;6.762;2023-07-22T11:41:46;101000.94;;;22.23;42.21
9009;BME280;62813;51.424;6.762;2023-07-22T11:44:18;101003.06;;;22.30;42.51
9009;BME280;62813;51.424;6.762;2023-07-22T11:46:52;101004.03;;;22.13;42.96
9009;BME280;62813;51.424;6.762;2023-07-22T11:49:24;101006.63;;;22.09;42.22
9009;BME280;62813;51.424;6.762;2023-07-22T11:52:05;100995.41;;;22.07;41.92
9009;BME280;62813;51.424;6.762;2023-07-22T11:54:35;100990.59;;;22.01;42.33
9009;BME280;62813;51.424;6.762;2023-07-22T11:57:15;100992.28;;;22.05;42.65
9009;BME280;62813;51.424;6.762;2023-07-22T11:59:47;101008.19;;;22.10;41.98
9009;BME280;62813;51.424;6.762;2023-07-22T12:02:18;100996.75;;;22.01;39.76
9009;BME280;62813;51.424;6.762;2023-07-22T12:05:12;101000.25;;;22.14;39.75
9009;BME280;62813;51.424;6.762;2023-07-22T12:07:39;100982.22;;;22.02;40.82
9009;BME280;62813;51.424;6.762;2023-07-22T12:10:07;100980.66;;;22.01;39.31
9009;BME280;62813;51.424;6.762;2023-07-22T12:12:45;100980.97;;;22.00;39.51
9009;BME280;62813;51.424;6.762;2023-07-22T12:15:15;100975.19;;;22.10;40.26
9009;BME280;62813;51.424;6.762;2023-07-22T12:17:48;100978.22;;;22.20;41.28
9009;BME280;62813;51.424;6.762;2023-07-22T12:20:16;100969.97;;;22.25;40.70
9009;BME280;62813;51.424;6.762;2023-07-22T12:22:43;100966.25;;;22.30;41.23
9009;BME280;62813;51.424;6.762;2023-07-22T12:25:10;100960.47;;;22.28;40.87
9009;BME280;62813;51.424;6.762;2023-07-22T12:27:37;100960.88;;;22.30;40.59
9009;BME280;62813;51.424;6.762;2023-07-22T12:30:05;100960.00;;;22.26;40.29
9009;BME280;62813;51.424;6.762;2023-07-22T12:32:33;100960.00;;;22.38;40.84
9009;BME280;62813;51.424;6.762;2023-07-22T12:35:00;100958.31;;;22.46;39.60
9009;BME280;62813;51.424;6.762;2023-07-22T12:37:27;100964.16;;;22.60;40.32
9009;BME280;62813;51.424;6.762;2023-07-22T12:39:55;100954.75;;;22.54;40.22
9009;BME280;62813;51.424;6.762;2023-07-22T12:42:22;100951.03;;;22.46;39.40
9009;BME280;62813;51.424;6.762;2023-07-22T12:44:49;100957.91;;;22.44;40.02
9009;BME280;62813;51.424;6.762;2023-07-22T12:47:16;100953.19;;;22.53;39.19
9009;BME280;62813;51.424;6.762;2023-07-22T12:49:42;100956.66;;;22.53;39.85
9009;BME280;62813;51.424;6.762;2023-07-22T12:52:09;100955.88;;;22.53;39.12
9009;BME280;62813;51.424;6.762;2023-07-22T12:54:37;100949.41;;;22.54;38.44
9009;BME280;62813;51.424;6.762;2023-07-22T12:57:04;100957.09;;;22.55;38.87
9009;BME280;62813;51.424;6.762;2023-07-22T12:59:31;100955.09;;;22.52;38.19
9009;BME280;62813;51.424;6.762;2023-07-22T13:01:58;100949.72;;;22.52;38.63
9009;BME280;62813;51.424;6.762;2023-07-22T13:04:25;100945.69;;;22.58;38.28
9009;BME280;62813;51.424;6.762;2023-07-22T13:06:51;100944.56;;;22.59;37.75
9009;BME280;62813;51.424;6.762;2023-07-22T13:09:19;100953.16;;;22.65;38.80
9009;BME280;62813;51.424;6.762;2023-07-22T13:11:46;100940.63;;;22.57;39.05
9009;BME280;62813;51.424;6.762;2023-07-22T13:14:13;100938.16;;;22.64;38.94